createdAt,value
2019-03-08T00:00:43.291Z,4.87
2019-03-08T00:03:12.005Z,8.83
2019-03-08T00:05:40.672Z,2.17
2019-03-08T00:08:09.343Z,3.50
2019-03-08T00:10:38.179Z,3.50
2019-03-08T00:13:06.868Z,5.27
2019-03-08T00:15:35.922Z,3.33
2019-03-08T00:18:04.795Z,3.80
2019-03-08T00:20:33.567Z,3.57
2019-03-08T00:23:02.290Z,4.27
2019-03-08T00:25:30.989Z,2.90
2019-03-08T00:27:59.660Z,2.87
2019-03-08T00:30:28.655Z,2.73
2019-03-08T00:32:57.332Z,6.63
2019-03-08T00:35:26.023Z,4.53
2019-03-08T00:37:54.723Z,5.40
2019-03-08T00:40:23.422Z,4.93
2019-03-08T00:42:52.164Z,8.60
2019-03-08T00:45:21.189Z,4.23
2019-03-08T00:47:49.987Z,1.57
2019-03-08T00:50:18.725Z,3.80
2019-03-08T00:52:47.479Z,5.53
2019-03-08T00:55:16.226Z,4.10
2019-03-08T00:57:45.027Z,2.90
2019-03-08T01:00:22.029Z,3.40
2019-03-08T01:02:50.896Z,3.53
2019-03-08T01:05:20.019Z,4.07
2019-03-08T01:07:48.906Z,4.30
2019-03-08T01:10:25.236Z,3.23
2019-03-08T01:12:54.407Z,3.60
2019-03-08T01:15:23.084Z,5.30
2019-03-08T01:17:51.810Z,7.43
2019-03-08T01:20:20.691Z,6.37
2019-03-08T01:22:49.382Z,4.70
2019-03-08T01:25:18.665Z,1.80
2019-03-08T01:27:58.482Z,2.50
2019-03-08T01:30:27.174Z,3.50
2019-03-08T01:32:55.975Z,1.67
2019-03-08T01:35:24.751Z,6.47
2019-03-08T01:37:53.803Z,6.80
2019-03-08T01:40:22.519Z,5.40
2019-03-08T01:42:51.361Z,4.00
2019-03-08T01:45:20.241Z,4.87
2019-03-08T01:47:48.906Z,4.10
2019-03-08T01:50:17.598Z,4.93
2019-03-08T01:52:46.596Z,4.70
2019-03-08T01:55:15.467Z,8.50
2019-03-08T01:57:44.386Z,8.40
2019-03-08T02:00:21.058Z,5.70
2019-03-08T02:02:49.813Z,7.90
2019-03-08T02:05:18.910Z,7.00
2019-03-08T02:07:47.673Z,4.80
2019-03-08T02:10:16.849Z,4.10
2019-03-08T02:12:45.543Z,2.77
2019-03-08T02:15:16.386Z,5.30
2019-03-08T02:17:45.086Z,5.07
2019-03-08T02:20:18.694Z,8.37
2019-03-08T02:22:47.467Z,4.00
2019-03-08T02:25:16.132Z,1.10
2019-03-08T02:27:45.058Z,6.50
2019-03-08T02:30:15.838Z,7.17
2019-03-08T02:32:44.890Z,3.57
2019-03-08T02:35:14.767Z,3.17
2019-03-08T02:37:43.458Z,3.57
2019-03-08T02:40:35.803Z,3.47
2019-03-08T02:43:06.805Z,3.60
2019-03-08T02:45:35.542Z,4.80
2019-03-08T02:48:04.222Z,2.27
2019-03-08T02:50:33.125Z,3.83
2019-03-08T02:53:01.893Z,3.27
2019-03-08T02:55:31.070Z,3.57
2019-03-08T02:57:59.819Z,5.47
2019-03-08T03:00:34.452Z,7.83
2019-03-08T03:03:03.140Z,3.27
2019-03-08T03:05:31.812Z,5.07
2019-03-08T03:08:00.557Z,6.80
2019-03-08T03:10:29.419Z,3.63
2019-03-08T03:12:58.105Z,3.30
2019-03-08T03:15:26.858Z,6.97
2019-03-08T03:17:55.530Z,3.63
2019-03-08T03:20:24.201Z,1.83
2019-03-08T03:22:52.940Z,1.60
2019-03-08T03:25:21.617Z,1.53
2019-03-08T03:27:50.415Z,2.70
2019-03-08T03:30:20.807Z,1.63
2019-03-08T03:32:49.572Z,2.60
2019-03-08T03:35:18.459Z,1.33
2019-03-08T03:37:47.590Z,1.20
2019-03-08T03:40:17.272Z,3.73
2019-03-08T03:42:45.943Z,1.53
2019-03-08T03:45:19.892Z,1.50
2019-03-08T03:47:48.574Z,0.87
2019-03-08T03:50:18.568Z,2.30
2019-03-08T03:52:47.714Z,1.00
2019-03-08T03:55:17.779Z,1.10
2019-03-08T03:57:46.761Z,3.27
2019-03-08T04:00:20.992Z,3.07
2019-03-08T04:02:49.663Z,1.80
2019-03-08T04:05:18.516Z,1.90
2019-03-08T04:07:47.259Z,4.43
2019-03-08T04:10:16.933Z,2.93
2019-03-08T04:12:45.881Z,4.23
2019-03-08T04:15:16.066Z,4.40
2019-03-08T04:17:45.206Z,3.03
2019-03-08T04:20:15.677Z,3.10
2019-03-08T04:22:44.550Z,6.00
2019-03-08T04:25:14.190Z,5.00
2019-03-08T04:27:42.978Z,3.77
2019-03-08T04:30:19.443Z,6.50
2019-03-08T04:32:48.260Z,4.50
2019-03-08T04:35:16.970Z,4.17
2019-03-08T04:37:45.663Z,6.90
2019-03-08T04:40:15.040Z,4.17
2019-03-08T04:42:43.844Z,4.63
2019-03-08T04:45:14.898Z,7.40
2019-03-08T04:47:43.799Z,11.27
2019-03-08T04:50:16.284Z,7.13
2019-03-08T04:52:45.153Z,5.43
2019-03-08T04:55:18.986Z,6.53
2019-03-08T04:57:47.964Z,7.37
2019-03-08T05:00:18.038Z,6.63
2019-03-08T05:02:46.943Z,4.37
2019-03-08T05:05:15.832Z,6.20
2019-03-08T05:07:44.522Z,9.27
2019-03-08T05:10:17.855Z,9.60
2019-03-08T05:12:46.542Z,7.03
2019-03-08T05:15:15.694Z,4.90
2019-03-08T05:17:44.477Z,13.87
2019-03-08T05:20:13.221Z,5.60
2019-03-08T05:22:41.912Z,6.80
2019-03-08T05:25:12.687Z,8.20
2019-03-08T05:27:41.386Z,5.90
2019-03-08T05:30:12.937Z,6.93
2019-03-08T05:32:41.774Z,4.53
2019-03-08T05:35:10.912Z,8.00
2019-03-08T05:37:39.708Z,7.03
2019-03-08T05:40:12.690Z,9.50
2019-03-08T05:42:41.409Z,6.70
2019-03-08T05:45:13.119Z,7.60
2019-03-08T05:47:42.027Z,7.57
2019-03-08T05:50:11.396Z,6.80
2019-03-08T05:52:40.848Z,7.73
2019-03-08T05:55:11.466Z,6.23
2019-03-08T05:57:40.281Z,8.60
2019-03-08T06:00:11.513Z,7.67
2019-03-08T06:02:40.318Z,7.90
2019-03-08T06:05:09.326Z,8.27
2019-03-08T06:07:38.392Z,10.93
2019-03-08T06:10:30.722Z,6.93
2019-03-08T06:13:00.522Z,9.93
2019-03-08T06:15:29.186Z,7.03
2019-03-08T06:17:58.362Z,12.33
2019-03-08T06:20:27.295Z,12.53
2019-03-08T06:22:56.124Z,8.03
2019-03-08T06:25:25.403Z,12.67
2019-03-08T06:27:55.916Z,7.27
2019-03-08T06:30:24.626Z,9.23
2019-03-08T06:32:53.832Z,8.83
2019-03-08T06:35:22.607Z,5.20
2019-03-08T06:37:51.279Z,10.57
2019-03-08T06:40:19.979Z,14.00
2019-03-08T06:42:49.048Z,13.87
2019-03-08T06:45:18.675Z,8.40
2019-03-08T06:47:47.980Z,10.43
2019-03-08T06:50:16.753Z,9.67
2019-03-08T06:52:45.626Z,11.60
2019-03-08T06:55:15.481Z,7.50
2019-03-08T06:57:44.254Z,11.17
2019-03-08T07:00:38.578Z,13.33
2019-03-08T07:03:09.201Z,11.70
2019-03-08T07:05:38.225Z,12.73
2019-03-08T07:08:08.020Z,12.30
2019-03-08T07:10:36.738Z,11.77
2019-03-08T07:13:05.395Z,12.70
2019-03-08T07:15:34.110Z,13.53
2019-03-08T07:18:11.758Z,10.20
2019-03-08T07:20:35.180Z,13.67
2019-03-08T07:23:08.281Z,14.93
2019-03-08T07:25:52.424Z,8.13
